sensor_id;sensor_type;location;lat;lon;timestamp;pressure;altitude;pressure_sealevel;temperature;humidity
50710;BME280;37033;49.994;21.992;2022-11-15T00:02:55;99755.80;;;4.06;93.34
50710;BME280;37033;49.994;21.992;2022-11-15T00:05:45;99750.98;;;4.05;93.34
50710;BME280;37033;49.994;21.992;2022-11-15T00:08:34;99751.91;;;4.03;93.43
50710;BME280;37033;49.994;21.992;2022-11-15T00:11:25;99750.45;;;4.02;93.37
50710;BME280;37033;49.994;21.992;2022-11-15T00:14:15;99744.77;;;4.00;93.31
50710;BME280;37033;49.994;21.992;2022-11-15T00:17:05;99739.89;;;4.00;93.31
50710;BME280;37033;49.994;21.992;2022-11-15T00:19:55;99737.27;;;4.01;93.33
50710;BME280;37033;49.994;21.992;2022-11-15T00:22:45;99732.81;;;4.01;93.32
50710;BME280;37033;49.994;21.992;2022-11-15T00:25:35;99735.24;;;4.00;93.29
50710;BME280;37033;49.994;21.992;2022-11-15T00:28:25;99729.28;;;3.99;93.32
50710;BME280;37033;49.994;21.992;2022-11-15T00:31:16;99727.30;;;3.96;93.32
50710;BME280;37033;49.994;21.992;2022-11-15T00:34:06;99724.10;;;3.94;93.24
50710;BME280;37033;49.994;21.992;2022-11-15T00:36:55;99719.95;;;3.93;93.28
50710;BME280;37033;49.994;21.992;2022-11-15T00:39:45;99713.13;;;3.90;93.32
50710;BME280;37033;49.994;21.992;2022-11-15T00:42:35;99710.87;;;3.88;93.37
50710;BME280;37033;49.994;21.992;2022-11-15T00:45:24;99709.60;;;3.86;93.37
50710;BME280;37033;49.994;21.992;2022-11-15T00:48:14;99706.85;;;3.83;93.37
50710;BME280;37033;49.994;21.992;2022-11-15T00:51:05;99704.27;;;3.82;93.48
50710;BME280;37033;49.994;21.992;2022-11-15T00:53:56;99705.52;;;3.81;93.48
50710;BME280;37033;49.994;21.992;2022-11-15T00:56:45;99701.63;;;3.79;93.48
50710;BME280;37033;49.994;21.992;2022-11-15T00:59:35;99696.98;;;3.77;93.59
50710;BME280;37033;49.994;21.992;2022-11-15T01:02:25;99701.10;;;3.73;93.65
50710;BME280;37033;49.994;21.992;2022-11-15T01:05:16;99695.73;;;3.71;93.56
50710;BME280;37033;49.994;21.992;2022-11-15T01:08:10;99689.87;;;3.71;93.58
50710;BME280;37033;49.994;21.992;2022-11-15T01:11:04;99697.34;;;3.68;93.56
50710;BME280;37033;49.994;21.992;2022-11-15T01:13:54;99694.94;;;3.66;93.61
50710;BME280;37033;49.994;21.992;2022-11-15T01:16:44;99690.15;;;3.63;93.64
50710;BME280;37033;49.994;21.992;2022-11-15T01:19:34;99690.64;;;3.59;93.75
50710;BME280;37033;49.994;21.992;2022-11-15T01:22:23;99691.60;;;3.57;93.66
50710;BME280;37033;49.994;21.992;2022-11-15T01:25:13;99694.33;;;3.56;93.68
50710;BME280;37033;49.994;21.992;2022-11-15T01:28:05;99685.18;;;3.52;93.67
50710;BME280;37033;49.994;21.992;2022-11-15T01:30:56;99689.04;;;3.53;93.69
50710;BME280;37033;49.994;21.992;2022-11-15T01:33:47;99682.56;;;3.50;93.67
50710;BME280;37033;49.994;21.992;2022-11-15T01:36:40;99675.48;;;3.50;93.70
50710;BME280;37033;49.994;21.992;2022-11-15T01:39:29;99675.34;;;3.48;93.73
50710;BME280;37033;49.994;21.992;2022-11-15T01:42:19;99671.03;;;3.45;93.72
50710;BME280;37033;49.994;21.992;2022-11-15T01:45:15;99673.05;;;3.44;93.63
50710;BME280;37033;49.994;21.992;2022-11-15T01:48:07;99670.04;;;3.47;93.67
50710;BME280;37033;49.994;21.992;2022-11-15T01:50:58;99664.36;;;3.47;93.64
50710;BME280;37033;49.994;21.992;2022-11-15T01:53:52;99666.14;;;3.47;93.62
50710;BME280;37033;49.994;21.992;2022-11-15T01:56:47;99656.30;;;3.45;93.60
50710;BME280;37033;49.994;21.992;2022-11-15T01:59:42;99657.06;;;3.42;93.46
50710;BME280;37033;49.994;21.992;2022-11-15T02:02:34;99656.95;;;3.40;93.48
50710;BME280;37033;49.994;21.992;2022-11-15T02:05:26;99654.09;;;3.38;93.54
50710;BME280;37033;49.994;21.992;2022-11-15T02:08:15;99654.29;;;3.37;93.53
50710;BME280;37033;49.994;21.992;2022-11-15T02:11:10;99653.08;;;3.33;93.66
50710;BME280;37033;49.994;21.992;2022-11-15T02:14:01;99653.14;;;3.31;93.69
50710;BME280;37033;49.994;21.992;2022-11-15T02:16:57;99650.30;;;3.32;93.69
50710;BME280;37033;49.994;21.992;2022-11-15T02:30:14;99638.02;;;3.25;93.51
50710;BME280;37033;49.994;21.992;2022-11-15T02:33:12;99637.79;;;3.24;93.47
50710;BME280;37033;49.994;21.992;2022-11-15T02:36:09;99633.72;;;3.22;93.54
50710;BME280;37033;49.994;21.992;2022-11-15T02:39:08;99633.05;;;3.18;93.50
50710;BME280;37033;49.994;21.992;2022-11-15T02:42:04;99632.56;;;3.15;93.49
50710;BME280;37033;49.994;21.992;2022-11-15T02:45:21;99630.58;;;3.12;93.60
50710;BME280;37033;49.994;21.992;2022-11-15T02:48:13;99628.57;;;3.11;93.50
50710;BME280;37033;49.994;21.992;2022-11-15T02:51:04;99628.61;;;3.09;93.59
50710;BME280;37033;49.994;21.992;2022-11-15T02:53:55;99626.75;;;3.07;93.64
50710;BME280;37033;49.994;21.992;2022-11-15T02:56:46;99626.01;;;3.06;93.49
50710;BME280;37033;49.994;21.992;2022-11-15T02:59:53;99623.65;;;3.03;93.52
50710;BME280;37033;49.994;21.992;2022-11-15T03:03:11;99622.04;;;3.00;93.46
50710;BME280;37033;49.994;21.992;2022-11-15T03:06:12;99621.05;;;3.01;93.53
50710;BME280;37033;49.994;21.992;2022-11-15T03:09:09;99615.85;;;3.01;93.47
50710;BME280;37033;49.994;21.992;2022-11-15T03:12:11;99612.88;;;3.00;93.51
50710;BME280;37033;49.994;21.992;2022-11-15T03:15:08;99610.39;;;2.97;93.41
50710;BME280;37033;49.994;21.992;2022-11-15T03:18:04;99606.80;;;2.94;93.37
50710;BME280;37033;49.994;21.992;2022-11-15T03:20:55;99599.79;;;2.91;93.42
50710;BME280;37033;49.994;21.992;2022-11-15T03:23:48;99595.45;;;2.89;93.33
50710;BME280;37033;49.994;21.992;2022-11-15T03:26:42;99597.86;;;2.87;93.43
50710;BME280;37033;49.994;21.992;2022-11-15T03:29:37;99599.86;;;2.85;93.41
50710;BME280;37033;49.994;21.992;2022-11-15T03:32:30;99594.13;;;2.80;93.31
50710;BME280;37033;49.994;21.992;2022-11-15T03:35:23;99587.92;;;2.76;93.44
50710;BME280;37033;49.994;21.992;2022-11-15T03:38:17;99588.33;;;2.69;93.44
50710;BME280;37033;49.994;21.992;2022-11-15T03:41:14;99585.66;;;2.65;93.30
50710;BME280;37033;49.994;21.992;2022-11-15T03:44:11;99580.59;;;2.64;93.43
50710;BME280;37033;49.994;21.992;2022-11-15T03:47:06;99577.52;;;2.63;93.42
50710;BME280;37033;49.994;21.992;2022-11-15T03:50:01;99575.10;;;2.62;93.58
50710;BME280;37033;49.994;21.992;2022-11-15T03:52:52;99575.73;;;2.60;93.58
50710;BME280;37033;49.994;21.992;2022-11-15T03:55:44;99574.15;;;2.56;93.53
50710;BME280;37033;49.994;21.992;2022-11-15T03:58:34;99569.45;;;2.54;93.45
50710;BME280;37033;49.994;21.992;2022-11-15T04:01:24;99566.06;;;2.53;93.49
50710;BME280;37033;49.994;21.992;2022-11-15T04:04:14;99563.19;;;2.54;93.54
50710;BME280;37033;49.994;21.992;2022-11-15T04:07:04;99564.39;;;2.51;93.45
50710;BME280;37033;49.994;21.992;2022-11-15T04:09:54;99559.80;;;2.48;93.39
50710;BME280;37033;49.994;21.992;2022-11-15T04:12:54;99556.19;;;2.44;93.34
50710;BME280;37033;49.994;21.992;2022-11-15T04:15:44;99553.53;;;2.40;93.32
50710;BME280;37033;49.994;21.992;2022-11-15T04:18:34;99553.93;;;2.37;93.28
50710;BME280;37033;49.994;21.992;2022-11-15T04:21:24;99551.80;;;2.34;93.25
50710;BME280;37033;49.994;21.992;2022-11-15T04:24:34;99547.70;;;2.34;93.36
50710;BME280;37033;49.994;21.992;2022-11-15T04:27:24;99542.52;;;2.32;93.32
50710;BME280;37033;49.994;21.992;2022-11-15T04:30:14;99543.70;;;2.30;93.35
50710;BME280;37033;49.994;21.992;2022-11-15T04:33:04;99547.77;;;2.29;93.35
50710;BME280;37033;49.994;21.992;2022-11-15T04:35:54;99544.20;;;2.27;93.33
50710;BME280;37033;49.994;21.992;2022-11-15T04:39:02;99542.35;;;2.26;93.32
50710;BME280;37033;49.994;21.992;2022-11-15T04:41:52;99544.13;;;2.26;93.34
50710;BME280;37033;49.994;21.992;2022-11-15T04:44:42;99543.64;;;2.26;93.34
50710;BME280;37033;49.994;21.992;2022-11-15T04:47:33;99547.45;;;2.25;93.39
50710;BME280;37033;49.994;21.992;2022-11-15T04:50:23;99549.70;;;2.23;93.25
50710;BME280;37033;49.994;21.992;2022-11-15T04:53:13;99547.93;;;2.22;93.23
50710;BME280;37033;49.994;21.992;2022-11-15T04:56:03;99546.27;;;2.20;93.27
50710;BME280;37033;49.994;21.992;2022-11-15T04:58:53;99541.00;;;2.21;93.25
50710;BME280;37033;49.994;21.992;2022-11-15T05:01:44;99539.15;;;2.22;93.29
50710;BME280;37033;49.994;21.992;2022-11-15T05:04:35;99534.75;;;2.20;93.24
50710;BME280;37033;49.994;21.992;2022-11-15T05:07:25;99534.38;;;2.20;93.29
50710;BME280;37033;49.994;21.992;2022-11-15T05:10:15;99530.65;;;2.19;93.26
50710;BME280;37033;49.994;21.992;2022-11-15T05:13:05;99530.24;;;2.16;93.11
50710;BME280;37033;49.994;21.992;2022-11-15T05:15:55;99529.53;;;2.11;93.03
50710;BME280;37033;49.994;21.992;2022-11-15T05:18:45;99523.55;;;2.05;92.92
50710;BME280;37033;49.994;21.992;2022-11-15T05:21:36;99517.42;;;2.03;92.86
50710;BME280;37033;49.994;21.992;2022-11-15T05:24:27;99515.52;;;2.01;92.95
50710;BME280;37033;49.994;21.992;2022-11-15T05:27:17;99511.46;;;1.99;92.91
50710;BME280;37033;49.994;21.992;2022-11-15T05:30:08;99505.96;;;1.95;92.95
50710;BME280;37033;49.994;21.992;2022-11-15T05:32:58;99508.09;;;1.94;92.89
50710;BME280;37033;49.994;21.992;2022-11-15T05:35:54;99501.46;;;1.90;92.83
50710;BME280;37033;49.994;21.992;2022-11-15T05:38:46;99495.59;;;1.88;92.87
50710;BME280;37033;49.994;21.992;2022-11-15T05:41:41;99491.33;;;1.88;92.95
50710;BME280;37033;49.994;21.992;2022-11-15T05:44:33;99494.89;;;1.86;93.02
50710;BME280;37033;49.994;21.992;2022-11-15T05:47:26;99492.02;;;1.82;93.03
50710;BME280;37033;49.994;21.992;2022-11-15T05:50:19;99493.45;;;1.77;92.91
50710;BME280;37033;49.994;21.992;2022-11-15T05:53:11;99492.33;;;1.75;92.91
50710;BME280;37033;49.994;21.992;2022-11-15T05:56:04;99495.27;;;1.74;92.89
50710;BME280;37033;49.994;21.992;2022-11-15T05:58:56;99494.31;;;1.70;92.82
50710;BME280;37033;49.994;21.992;2022-11-15T06:01:48;99490.83;;;1.66;92.67
50710;BME280;37033;49.994;21.992;2022-11-15T06:04:38;99488.30;;;1.65;92.77
50710;BME280;37033;49.994;21.992;2022-11-15T06:07:28;99489.23;;;1.62;92.67
50710;BME280;37033;49.994;21.992;2022-11-15T06:10:18;99485.70;;;1.58;92.60
50710;BME280;37033;49.994;21.992;2022-11-15T06:13:08;99487.52;;;1.53;92.53
50710;BME280;37033;49.994;21.992;2022-11-15T06:15:58;99485.13;;;1.48;92.47
50710;BME280;37033;49.994;21.992;2022-11-15T06:18:48;99481.08;;;1.43;92.41
50710;BME280;37033;49.994;21.992;2022-11-15T06:21:38;99487.34;;;1.40;92.55
50710;BME280;37033;49.994;21.992;2022-11-15T06:24:28;99480.52;;;1.37;92.55
50710;BME280;37033;49.994;21.992;2022-11-15T06:27:19;99482.42;;;1.37;92.66
50710;BME280;37033;49.994;21.992;2022-11-15T06:30:11;99477.90;;;1.38;92.62
50710;BME280;37033;49.994;21.992;2022-11-15T06:33:04;99475.79;;;1.41;92.73
50710;BME280;37033;49.994;21.992;2022-11-15T06:35:55;99479.58;;;1.42;92.70
50710;BME280;37033;49.994;21.992;2022-11-15T06:38:45;99479.27;;;1.45;92.69
50710;BME280;37033;49.994;21.992;2022-11-15T06:41:36;99478.10;;;1.47;92.65
50710;BME280;37033;49.994;21.992;2022-11-15T06:44:26;99478.77;;;1.50;92.75
50710;BME280;37033;49.994;21.992;2022-11-15T06:47:16;99477.39;;;1.52;92.62
50710;BME280;37033;49.994;21.992;2022-11-15T06:50:08;99475.48;;;1.53;92.60
50710;BME280;37033;49.994;21.992;2022-11-15T06:53:02;99472.45;;;1.54;92.58
50710;BME280;37033;49.994;21.992;2022-11-15T06:55:57;99476.96;;;1.58;92.70
50710;BME280;37033;49.994;21.992;2022-11-15T06:58:47;99474.42;;;1.61;92.71
50710;BME280;37033;49.994;21.992;2022-11-15T07:01:38;99478.81;;;1.65;92.72
50710;BME280;37033;49.994;21.992;2022-11-15T07:04:28;99474.94;;;1.68;92.65
50710;BME280;37033;49.994;21.992;2022-11-15T07:07:17;99475.48;;;1.71;92.65
50710;BME280;37033;49.994;21.992;2022-11-15T07:10:09;99473.08;;;1.73;92.53
50710;BME280;37033;49.994;21.992;2022-11-15T07:12:59;99474.67;;;1.74;92.44
50710;BME280;37033;49.994;21.992;2022-11-15T07:15:49;99475.97;;;1.75;92.49
50710;BME280;37033;49.994;21.992;2022-11-15T07:18:40;99470.89;;;1.78;92.46
50710;BME280;37033;49.994;21.992;2022-11-15T07:21:30;99470.45;;;1.82;92.43
50710;BME280;37033;49.994;21.992;2022-11-15T07:24:19;99469.05;;;1.84;92.44
50710;BME280;37033;49.994;21.992;2022-11-15T07:27:10;99462.79;;;1.87;92.44
50710;BME280;37033;49.994;21.992;2022-11-15T07:30:00;99459.63;;;1.91;92.56
50710;BME280;37033;49.994;21.992;2022-11-15T07:32:53;99457.86;;;1.93;92.45
50710;BME280;37033;49.994;21.992;2022-11-15T07:35:44;99453.55;;;1.96;92.45
50710;BME280;37033;49.994;21.992;2022-11-15T07:38:38;99453.45;;;2.01;92.64
50710;BME280;37033;49.994;21.992;2022-11-15T07:41:28;99449.62;;;2.06;92.66
50710;BME280;37033;49.994;21.992;2022-11-15T07:44:18;99447.16;;;2.10;92.60
50710;BME280;37033;49.994;21.992;2022-11-15T07:47:08;99451.52;;;2.17;92.61
50710;BME280;37033;49.994;21.992;2022-11-15T07:49:57;99447.20;;;2.24;92.66
50710;BME280;37033;49.994;21.992;2022-11-15T07:52:47;99444.19;;;2.29;92.63
50710;BME280;37033;49.994;21.992;2022-11-15T07:55:39;99446.23;;;2.34;92.60
50710;BME280;37033;49.994;21.992;2022-11-15T07:58:29;99447.02;;;2.41;92.62
50710;BME280;37033;49.994;21.992;2022-11-15T08:01:19;99441.73;;;2.46;92.72
50710;BME280;37033;49.994;21.992;2022-11-15T08:04:11;99441.14;;;2.53;92.80
50710;BME280;37033;49.994;21.992;2022-11-15T08:07:01;99438.89;;;2.58;92.78
50710;BME280;37033;49.994;21.992;2022-11-15T08:09:51;99433.00;;;2.64;92.88
50710;BME280;37033;49.994;21.992;2022-11-15T08:12:41;99425.94;;;2.70;92.89
50710;BME280;37033;49.994;21.992;2022-11-15T08:15:31;99418.34;;;2.81;92.77
50710;BME280;37033;49.994;21.992;2022-11-15T08:18:21;99414.83;;;2.95;92.95
50710;BME280;37033;49.994;21.992;2022-11-15T08:21:13;99410.16;;;3.06;93.20
50710;BME280;37033;49.994;21.992;2022-11-15T08:24:05;99409.11;;;3.19;93.39
50710;BME280;37033;49.994;21.992;2022-11-15T08:26:55;99402.55;;;3.30;93.36
50710;BME280;37033;49.994;21.992;2022-11-15T08:29:46;99403.13;;;3.40;93.42
50710;BME280;37033;49.994;21.992;2022-11-15T08:32:37;99399.27;;;3.53;93.50
50710;BME280;37033;49.994;21.992;2022-11-15T08:35:27;99398.38;;;3.68;93.56
50710;BME280;37033;49.994;21.992;2022-11-15T08:38:18;99395.30;;;3.83;93.66
50710;BME280;37033;49.994;21.992;2022-11-15T08:41:09;99391.73;;;3.95;93.72
50710;BME280;37033;49.994;21.992;2022-11-15T08:44:00;99387.33;;;4.08;93.79
50710;BME280;37033;49.994;21.992;2022-11-15T08:46:51;99382.86;;;4.19;93.85
50710;BME280;37033;49.994;21.992;2022-11-15T08:49:40;99376.02;;;4.29;93.70
50710;BME280;37033;49.994;21.992;2022-11-15T08:52:30;99370.94;;;4.39;93.69
50710;BME280;37033;49.994;21.992;2022-11-15T08:55:20;99361.13;;;4.50;93.68
50710;BME280;37033;49.994;21.992;2022-11-15T08:58:10;99355.15;;;4.61;93.75
50710;BME280;37033;49.994;21.992;2022-11-15T09:00:59;99354.41;;;4.75;93.61
50710;BME280;37033;49.994;21.992;2022-11-15T09:03:49;99345.00;;;4.90;93.75
50710;BME280;37033;49.994;21.992;2022-11-15T09:06:39;99337.14;;;5.05;93.95
50710;BME280;37033;49.994;21.992;2022-11-15T09:09:31;99336.89;;;5.17;93.76
50710;BME280;37033;49.994;21.992;2022-11-15T09:12:20;99330.00;;;5.31;93.79
50710;BME280;37033;49.994;21.992;2022-11-15T09:15:11;99326.42;;;5.45;93.96
50710;BME280;37033;49.994;21.992;2022-11-15T09:18:01;99320.11;;;5.68;94.13
50710;BME280;37033;49.994;21.992;2022-11-15T09:20:51;99318.30;;;5.93;94.19
50710;BME280;37033;49.994;21.992;2022-11-15T09:23:44;99314.58;;;6.04;93.75
50710;BME280;37033;49.994;21.992;2022-11-15T09:26:34;99316.34;;;6.15;93.47
50710;BME280;37033;49.994;21.992;2022-11-15T09:29:24;99313.16;;;6.23;93.30
50710;BME280;37033;49.994;21.992;2022-11-15T09:32:14;99307.02;;;6.33;93.20
50710;BME280;37033;49.994;21.992;2022-11-15T09:35:05;99300.07;;;6.44;93.16
50710;BME280;37033;49.994;21.992;2022-11-15T09:37:56;99297.21;;;6.55;93.15
50710;BME280;37033;49.994;21.992;2022-11-15T09:40:50;99291.25;;;6.64;92.90
50710;BME280;37033;49.994;21.992;2022-11-15T09:43:47;99289.41;;;6.75;92.83
50710;BME280;37033;49.994;21.992;2022-11-15T09:46:53;99287.73;;;6.87;92.71
50710;BME280;37033;49.994;21.992;2022-11-15T09:49:45;99283.52;;;6.98;92.63
50710;BME280;37033;49.994;21.992;2022-11-15T09:52:38;99277.66;;;7.09;92.42
50710;BME280;37033;49.994;21.992;2022-11-15T09:55:36;99272.48;;;7.21;92.30
50710;BME280;37033;49.994;21.992;2022-11-15T09:58:39;99268.73;;;7.33;92.12
50710;BME280;37033;49.994;21.992;2022-11-15T10:01:42;99268.67;;;7.47;91.74
50710;BME280;37033;49.994;21.992;2022-11-15T10:04:34;99264.26;;;7.62;91.29
50710;BME280;37033;49.994;21.992;2022-11-15T10:07:27;99261.04;;;7.78;91.13
50710;BME280;37033;49.994;21.992;2022-11-15T10:10:27;99255.02;;;7.88;90.98
50710;BME280;37033;49.994;21.992;2022-11-15T10:13:23;99252.45;;;8.00;90.83
50710;BME280;37033;49.994;21.992;2022-11-15T10:16:25;99251.21;;;8.08;90.65
50710;BME280;37033;49.994;21.992;2022-11-15T10:19:23;99238.15;;;8.14;90.37
50710;BME280;37033;49.994;21.992;2022-11-15T10:22:24;99238.47;;;8.18;89.99
50710;BME280;37033;49.994;21.992;2022-11-15T10:25:23;99236.90;;;8.20;89.86
50710;BME280;37033;49.994;21.992;2022-11-15T10:28:18;99237.44;;;8.23;89.66
50710;BME280;37033;49.994;21.992;2022-11-15T10:31:22;99233.63;;;8.27;89.44
50710;BME280;37033;49.994;21.992;2022-11-15T10:34:15;99229.34;;;8.30;89.11
50710;BME280;37033;49.994;21.992;2022-11-15T10:37:07;99224.59;;;8.33;88.98
50710;BME280;37033;49.994;21.992;2022-11-15T10:40:06;99219.27;;;8.36;89.02
50710;BME280;37033;49.994;21.992;2022-11-15T10:43:16;99213.45;;;8.40;88.86
50710;BME280;37033;49.994;21.992;2022-11-15T10:46:20;99211.77;;;8.45;88.87
50710;BME280;37033;49.994;21.992;2022-11-15T10:49:15;99209.45;;;8.50;88.78
50710;BME280;37033;49.994;21.992;2022-11-15T10:52:21;99207.56;;;8.57;88.67
50710;BME280;37033;49.994;21.992;2022-11-15T10:55:29;99208.67;;;8.65;88.43
50710;BME280;37033;49.994;21.992;2022-11-15T10:58:33;99204.27;;;8.73;88.18
50710;BME280;37033;49.994;21.992;2022-11-15T11:01:25;99204.38;;;8.82;88.03
50710;BME280;37033;49.994;21.992;2022-11-15T11:04:18;99203.63;;;8.93;87.96
50710;BME280;37033;49.994;21.992;2022-11-15T11:07:23;99198.47;;;9.05;87.64
50710;BME280;37033;49.994;21.992;2022-11-15T11:10:21;99197.36;;;9.23;86.77
50710;BME280;37033;49.994;21.992;2022-11-15T11:13:24;99195.94;;;9.43;86.52
50710;BME280;37033;49.994;21.992;2022-11-15T11:16:25;99187.77;;;9.62;85.58
50710;BME280;37033;49.994;21.992;2022-11-15T11:19:47;99185.27;;;9.79;84.91
50710;BME280;37033;49.994;21.992;2022-11-15T11:22:41;99176.61;;;9.94;84.16
50710;BME280;37033;49.994;21.992;2022-11-15T11:25:46;99172.17;;;10.07;83.78
50710;BME280;37033;49.994;21.992;2022-11-15T11:28:47;99168.79;;;10.15;83.89
50710;BME280;37033;49.994;21.992;2022-11-15T11:31:43;99163.03;;;10.21;83.90
50710;BME280;37033;49.994;21.992;2022-11-15T11:34:51;99158.98;;;10.26;83.60
50710;BME280;37033;49.994;21.992;2022-11-15T11:37:49;99152.14;;;10.33;83.44
50710;BME280;37033;49.994;21.992;2022-11-15T11:40:43;99155.11;;;10.41;83.16
50710;BME280;37033;49.994;21.992;2022-11-15T11:43:41;99148.55;;;10.50;82.76
50710;BME280;37033;49.994;21.992;2022-11-15T11:46:51;99145.21;;;10.58;82.53
50710;BME280;37033;49.994;21.992;2022-11-15T11:49:47;99137.39;;;10.66;82.15
50710;BME280;37033;49.994;21.992;2022-11-15T11:52:41;99128.66;;;10.71;82.19
50710;BME280;37033;49.994;21.992;2022-11-15T11:55:34;99126.70;;;10.74;81.91
50710;BME280;37033;49.994;21.992;2022-11-15T11:58:33;99119.86;;;10.75;81.94
50710;BME280;37033;49.994;21.992;2022-11-15T12:01:26;99112.71;;;10.76;81.90
50710;BME280;37033;49.994;21.992;2022-11-15T12:04:23;99111.43;;;10.79;81.89
50710;BME280;37033;49.994;21.992;2022-11-15T12:07:19;99105.03;;;10.83;81.48
50710;BME280;37033;49.994;21.992;2022-11-15T12:10:19;99095.73;;;10.88;81.32
50710;BME280;37033;49.994;21.992;2022-11-15T12:13:13;99089.98;;;10.93;81.20
50710;BME280;37033;49.994;21.992;2022-11-15T12:16:08;99084.96;;;10.95;81.23
50710;BME280;37033;49.994;21.992;2022-11-15T12:19:03;99077.82;;;10.98;81.49
50710;BME280;37033;49.994;21.992;2022-11-15T12:21:59;99075.60;;;11.03;81.22
50710;BME280;37033;49.994;21.992;2022-11-15T12:24:57;99070.30;;;11.10;81.30
50710;BME280;37033;49.994;21.992;2022-11-15T12:27:53;99061.09;;;11.14;81.02
50710;BME280;37033;49.994;21.992;2022-11-15T12:30:48;99061.42;;;11.18;80.86
50710;BME280;37033;49.994;21.992;2022-11-15T12:33:43;99063.13;;;11.20;80.69
50710;BME280;37033;49.994;21.992;2022-11-15T12:36:38;99055.80;;;11.22;80.60
50710;BME280;37033;49.994;21.992;2022-11-15T12:49:46;99043.00;;;11.39;79.25
50710;BME280;37033;49.994;21.992;2022-11-15T12:52:36;99041.06;;;11.40;79.00
50710;BME280;37033;49.994;21.992;2022-11-15T12:55:36;99038.96;;;11.43;78.97
50710;BME280;37033;49.994;21.992;2022-11-15T12:58:42;99040.16;;;11.43;78.98
50710;BME280;37033;49.994;21.992;2022-11-15T13:01:54;99033.21;;;11.44;78.78
50710;BME280;37033;49.994;21.992;2022-11-15T13:04:46;99028.50;;;11.46;78.89
50710;BME280;37033;49.994;21.992;2022-11-15T13:07:56;99024.20;;;11.48;79.08
50710;BME280;37033;49.994;21.992;2022-11-15T13:10:46;99016.61;;;11.51;78.87
50710;BME280;37033;49.994;21.992;2022-11-15T13:13:46;99014.85;;;11.54;78.82
50710;BME280;37033;49.994;21.992;2022-11-15T13:16:36;99015.79;;;11.55;78.59
50710;BME280;37033;49.994;21.992;2022-11-15T13:19:27;99013.92;;;11.60;78.32
50710;BME280;37033;49.994;21.992;2022-11-15T13:22:18;99011.50;;;11.61;78.58
50710;BME280;37033;49.994;21.992;2022-11-15T13:25:59;99012.60;;;11.62;78.28
50710;BME280;37033;49.994;21.992;2022-11-15T13:28:53;99008.68;;;11.64;78.24
50710;BME280;37033;49.994;21.992;2022-11-15T13:31:45;99014.21;;;11.67;78.19
50710;BME280;37033;49.994;21.992;2022-11-15T13:34:38;99015.81;;;11.69;76.85
50710;BME280;37033;49.994;21.992;2022-11-15T13:37:35;99011.66;;;11.73;75.90
50710;BME280;37033;49.994;21.992;2022-11-15T13:40:27;99011.48;;;11.77;75.98
50710;BME280;37033;49.994;21.992;2022-11-15T13:43:34;99008.86;;;11.76;75.63
50710;BME280;37033;49.994;21.992;2022-11-15T13:46:25;99011.87;;;11.78;75.42
50710;BME280;37033;49.994;21.992;2022-11-15T13:49:16;99010.62;;;11.78;75.23
50710;BME280;37033;49.994;21.992;2022-11-15T13:52:09;99003.26;;;11.78;73.94
50710;BME280;37033;49.994;21.992;2022-11-15T13:55:01;98994.45;;;11.78;74.40
50710;BME280;37033;49.994;21.992;2022-11-15T13:57:54;98989.46;;;11.76;73.65
50710;BME280;37033;49.994;21.992;2022-11-15T14:00:48;98987.10;;;11.73;74.35
50710;BME280;37033;49.994;21.992;2022-11-15T14:03:52;98986.88;;;11.66;74.02
50710;BME280;37033;49.994;21.992;2022-11-15T14:06:49;98985.16;;;11.62;74.03
50710;BME280;37033;49.994;21.992;2022-11-15T14:09:41;98990.94;;;11.58;74.28
50710;BME280;37033;49.994;21.992;2022-11-15T14:12:36;98989.45;;;11.51;74.33
50710;BME280;37033;49.994;21.992;2022-11-15T14:15:32;98987.63;;;11.43;74.52
50710;BME280;37033;49.994;21.992;2022-11-15T14:18:40;98987.86;;;11.33;74.66
50710;BME280;37033;49.994;21.992;2022-11-15T14:21:32;98991.20;;;11.25;74.67
50710;BME280;37033;49.994;21.992;2022-11-15T14:24:23;98990.73;;;11.17;74.68
50710;BME280;37033;49.994;21.992;2022-11-15T14:27:23;98992.11;;;11.09;74.79
50710;BME280;37033;49.994;21.992;2022-11-15T14:30:18;98987.41;;;11.02;75.16
50710;BME280;37033;49.994;21.992;2022-11-15T14:33:21;98980.40;;;10.93;75.00
50710;BME280;37033;49.994;21.992;2022-11-15T14:36:15;98978.84;;;10.81;75.13
50710;BME280;37033;49.994;21.992;2022-11-15T14:39:06;98976.30;;;10.69;75.10
50710;BME280;37033;49.994;21.992;2022-11-15T14:41:57;98977.32;;;10.56;75.19
50710;BME280;37033;49.994;21.992;2022-11-15T14:44:48;98977.71;;;10.45;75.37
50710;BME280;37033;49.994;21.992;2022-11-15T14:47:38;98976.71;;;10.35;75.57
50710;BME280;37033;49.994;21.992;2022-11-15T14:50:28;98975.77;;;10.25;75.76
50710;BME280;37033;49.994;21.992;2022-11-15T14:53:19;98975.35;;;10.15;75.72
50710;BME280;37033;49.994;21.992;2022-11-15T14:56:11;98974.03;;;10.03;75.86
50710;BME280;37033;49.994;21.992;2022-11-15T14:59:01;98982.64;;;9.91;75.94
50710;BME280;37033;49.994;21.992;2022-11-15T15:01:51;98983.79;;;9.80;76.10
50710;BME280;37033;49.994;21.992;2022-11-15T15:04:41;98982.69;;;9.70;76.23
50710;BME280;37033;49.994;21.992;2022-11-15T15:07:32;98979.82;;;9.61;76.76
50710;BME280;37033;49.994;21.992;2022-11-15T15:10:24;98982.94;;;9.56;76.98
50710;BME280;37033;49.994;21.992;2022-11-15T15:13:18;98978.16;;;9.48;76.82
50710;BME280;37033;49.994;21.992;2022-11-15T15:16:10;98979.77;;;9.40;77.45
50710;BME280;37033;49.994;21.992;2022-11-15T15:19:00;98975.03;;;9.36;77.54
50710;BME280;37033;49.994;21.992;2022-11-15T15:21:50;98969.45;;;9.25;77.32
50710;BME280;37033;49.994;21.992;2022-11-15T15:24:40;98962.82;;;9.15;77.43
50710;BME280;37033;49.994;21.992;2022-11-15T15:27:31;98964.48;;;9.07;77.60
50710;BME280;37033;49.994;21.992;2022-11-15T15:30:22;98960.97;;;9.01;77.85
50710;BME280;37033;49.994;21.992;2022-11-15T15:33:13;98957.79;;;8.96;77.94
50710;BME280;37033;49.994;21.992;2022-11-15T15:36:04;98960.33;;;8.89;77.97
50710;BME280;37033;49.994;21.992;2022-11-15T15:38:55;98959.38;;;8.80;78.00